Time;durP1;ratioP1;P1;durP2;ratioP2;P2;SDS_P1;SDS_P2;PMS_P1;PMS_P2;Temp;Humidity;BMP_temperature;BMP_pressure;BME280_temperature;BME280_humidity;BME280_pressure;Samples;Min_cycle;Max_cycle;Signal;HPM_P1;HPM_P2
2023/02/09 00:01:23;;;;;;;21.05;9.70;;;4.20;93.70;;;;;;4905561;29;20021;-94
2023/02/09 00:03:50;;;;;;;12.70;9.73;;;4.20;93.80;;;;;;4904192;29;20465;-95
2023/02/09 00:06:18;;;;;;;16.45;9.75;;;3.80;93.70;;;;;;4885189;29;20025;-94
2023/02/09 00:08:50;;;;;;;18.63;9.45;;;3.50;93.70;;;;;;4885589;29;20029;-93
2023/02/09 00:14:18;;;;;;;;;;;3.80;94.00;;;;;;4885857;29;20032;-94
2023/02/09 00:16:45;;;;;;;15.40;10.07;;;3.60;93.90;;;;;;4885086;29;19907;-94
2023/02/09 00:19:12;;;;;;;16.05;8.93;;;3.80;94.10;;;;;;4885192;29;20058;-95
2023/02/09 00:21:38;;;;;;;20.25;10.27;;;4.30;94.20;;;;;;4885337;29;20025;-94
2023/02/09 00:24:05;;;;;;;18.60;10.52;;;3.90;94.20;;;;;;4886095;29;20452;-94
2023/02/09 00:26:31;;;;;;;13.60;9.02;;;4.20;94.20;;;;;;4886254;29;20064;-93
2023/02/09 00:28:56;;;;;;;11.60;8.63;;;3.70;94.20;;;;;;4887675;29;20033;-94
2023/02/09 00:31:22;;;;;;;15.23;9.77;;;4.20;94.30;;;;;;4893339;29;20560;-94
2023/02/09 00:33:48;;;;;;;14.52;10.25;;;4.30;94.50;;;;;;4910687;29;20039;-94
2023/02/09 00:36:14;;;;;;;11.77;9.07;;;4.10;94.50;;;;;;4915304;29;20031;-94
2023/02/09 00:38:46;;;;;;;15.57;9.55;;;4.20;94.50;;;;;;4920418;29;20009;-93
2023/02/09 00:41:13;;;;;;;14.05;9.63;;;4.00;94.50;;;;;;4906190;29;20035;-94
2023/02/09 00:43:39;;;;;;;13.07;9.45;;;3.90;94.50;;;;;;4918051;29;20040;-95
2023/02/09 00:46:05;;;;;;;13.65;9.90;;;3.70;94.50;;;;;;4911689;29;20048;-95
2023/02/09 00:48:31;;;;;;;15.68;9.82;;;4.70;94.90;;;;;;4904103;29;20040;-94
2023/02/09 00:50:57;;;;;;;13.20;9.48;;;4.00;94.70;;;;;;4905732;29;20031;-93
2023/02/09 00:53:24;;;;;;;17.27;9.95;;;4.50;94.90;;;;;;4904295;29;20465;-93
2023/02/09 00:55:50;;;;;;;15.25;10.77;;;3.60;94.60;;;;;;4904453;29;20045;-93
2023/02/09 00:58:29;;;;;;;19.05;8.98;;;4.00;94.80;;;;;;4904652;29;20049;-94
2023/02/09 01:00:56;;;;;;;16.30;10.30;;;3.60;94.60;;;;;;4904925;29;20029;-94
2023/02/09 01:03:21;;;;;;;15.25;9.85;;;3.60;94.80;;;;;;4904331;29;20143;-95
2023/02/09 01:05:47;;;;;;;10.57;9.07;;;4.20;94.90;;;;;;4904382;29;20047;-94
2023/02/09 01:08:14;;;;;;;20.73;10.45;;;3.70;94.90;;;;;;4905222;29;20036;-94
2023/02/09 01:10:39;;;;;;;15.15;9.27;;;3.60;94.90;;;;;;4904024;29;20028;-93
2023/02/09 01:13:05;;;;;;;14.65;9.52;;;3.80;94.90;;;;;;4903849;29;20043;-95
2023/02/09 01:15:31;;;;;;;15.18;9.73;;;3.90;95.00;;;;;;4902727;29;20520;-93
2023/02/09 01:17:58;;;;;;;12.00;9.75;;;3.80;95.30;;;;;;4903213;29;20031;-94
2023/02/09 01:20:23;;;;;;;14.10;9.45;;;3.90;95.10;;;;;;4901932;29;20028;-93
2023/02/09 01:22:49;;;;;;;12.85;8.95;;;4.80;95.40;;;;;;4901261;29;20491;-95
2023/02/09 01:25:15;;;;;;;13.32;9.32;;;3.70;95.10;;;;;;4901101;29;20072;-95
2023/02/09 01:27:41;;;;;;;19.40;9.75;;;4.00;95.30;;;;;;4901705;29;20037;-95
2023/02/09 01:30:07;;;;;;;16.83;10.02;;;4.00;95.20;;;;;;4901470;29;20031;-92
2023/02/09 01:32:35;;;;;;;11.50;8.70;;;3.50;95.20;;;;;;4918441;29;20041;-93
2023/02/09 01:35:00;;;;;;;15.30;9.05;;;3.30;95.10;;;;;;4916834;29;20036;-94
2023/02/09 01:37:26;;;;;;;11.05;9.18;;;4.00;95.30;;;;;;4905328;29;20025;-92
2023/02/09 01:39:55;;;;;;;17.55;9.02;;;3.80;95.30;;;;;;4902251;29;20031;-95
2023/02/09 01:42:20;;;;;;;16.52;9.35;;;4.00;95.30;;;;;;4900945;29;20393;-93
2023/02/09 01:44:49;;;;;;;13.48;8.40;;;3.60;95.20;;;;;;4904086;29;20043;-92
2023/02/09 01:47:16;;;;;;;15.95;9.38;;;3.70;95.20;;;;;;4902168;29;20040;-93
2023/02/09 01:49:44;;;;;;;11.45;8.68;;;3.30;95.10;;;;;;4901845;29;20416;-94
2023/02/09 01:52:13;;;;;;;16.10;9.35;;;3.60;95.10;;;;;;4901144;29;20033;-94
2023/02/09 01:54:44;;;;;;;14.70;9.13;;;4.10;95.00;;;;;;4914820;29;20056;-94
2023/02/09 01:57:14;;;;;;;11.82;8.50;;;3.80;95.00;;;;;;4906776;29;20115;-94
2023/02/09 01:59:43;;;;;;;16.08;8.65;;;3.90;94.90;;;;;;4906294;29;20028;-93
2023/02/09 02:02:10;;;;;;;13.10;9.20;;;3.40;94.80;;;;;;4912002;29;20088;-93
2023/02/09 02:04:37;;;;;;;13.25;8.82;;;3.50;94.80;;;;;;4902987;29;20021;-93
2023/02/09 02:07:23;;;;;;;13.52;8.55;;;3.80;95.10;;;;;;4901590;29;20029;-93
2023/02/09 02:09:49;;;;;;;13.52;9.25;;;3.80;94.70;;;;;;4901387;29;20025;-94
2023/02/09 02:12:15;;;;;;;13.45;9.27;;;3.30;94.90;;;;;;4901070;29;20537;-94
2023/02/09 02:14:41;;;;;;;13.93;9.52;;;3.70;94.80;;;;;;4902064;29;20056;-94
2023/02/09 02:17:33;;;;;;;12.93;9.07;;;3.70;95.00;;;;;;4901678;29;20027;-94
2023/02/09 02:19:58;;;;;;;13.77;9.02;;;3.30;94.80;;;;;;4903096;29;20028;-93
2023/02/09 02:22:54;;;;;;;14.05;8.60;;;3.30;94.70;;;;;;4903520;29;20040;-93
2023/02/09 02:25:51;;;;;;;15.52;9.40;;;2.90;94.60;;;;;;4905700;29;20033;-94
2023/02/09 02:28:54;;;;;;;15.35;8.63;;;2.40;94.40;;;;;;4920371;29;20023;-93
2023/02/09 02:31:50;;;;;;;12.40;8.80;;;2.60;94.50;;;;;;4914047;29;20532;-95
2023/02/09 02:34:46;;;;;;;14.73;9.85;;;3.30;94.70;;;;;;4916980;29;20032;-94
2023/02/09 02:37:43;;;;;;;18.60;9.13;;;3.30;94.70;;;;;;4908214;29;20040;-94
2023/02/09 02:40:18;;;;;;;10.43;8.70;;;3.20;94.80;;;;;;4901245;29;20056;-94
2023/02/09 02:43:13;;;;;;;19.30;9.52;;;3.60;94.90;;;;;;4901859;29;20052;-93
2023/02/09 02:45:59;;;;;;;15.55;9.30;;;3.20;95.00;;;;;;4900246;29;20028;-94
2023/02/09 02:48:27;;;;;;;15.48;8.98;;;3.40;95.10;;;;;;4900517;29;20041;-94
2023/02/09 02:51:24;;;;;;;11.55;8.85;;;3.50;95.20;;;;;;4901967;29;20040;-93
2023/02/09 02:53:54;;;;;;;13.73;9.38;;;3.10;95.20;;;;;;4897601;29;20040;-93
2023/02/09 02:56:25;;;;;;;17.52;9.40;;;3.60;95.30;;;;;;4901116;29;20063;-93
2023/02/09 02:58:53;;;;;;;16.73;10.63;;;3.70;95.40;;;;;;4901517;29;20025;-94
2023/02/09 03:01:29;;;;;;;12.82;9.30;;;3.60;95.40;;;;;;4907657;29;20088;-93
2023/02/09 03:03:56;;;;;;;13.18;9.15;;;3.60;95.50;;;;;;4903367;29;20485;-92
2023/02/09 03:06:21;;;;;;;12.15;8.82;;;4.10;95.60;;;;;;4899238;29;20068;-95
2023/02/09 03:08:48;;;;;;;17.88;9.88;;;3.60;95.50;;;;;;4900196;29;20052;-94
2023/02/09 03:11:15;;;;;;;13.07;8.85;;;3.50;95.50;;;;;;4900596;29;20104;-94
2023/02/09 03:14:24;;;;;;;13.18;8.65;;;3.50;95.50;;;;;;4900657;29;20028;-94
2023/02/09 03:17:01;;;;;;;14.52;8.50;;;3.20;95.30;;;;;;4895820;29;20064;-93
2023/02/09 03:19:33;;;;;;;12.60;8.00;;;3.50;95.50;;;;;;4901123;29;20024;-93
2023/02/09 03:22:06;;;;;;;15.23;8.73;;;3.50;95.60;;;;;;4918004;29;20060;-93
2023/02/09 03:24:50;;;;;;;13.77;8.82;;;4.10;95.70;;;;;;4912052;29;20029;-92
2023/02/09 03:27:40;;;;;;;10.40;8.60;;;3.50;95.50;;;;;;4902747;29;20480;-92
2023/02/09 03:30:10;;;;;;;19.63;9.65;;;3.80;95.70;;;;;;4902876;29;20025;-93
2023/02/09 03:32:45;;;;;;;11.45;8.82;;;3.00;95.40;;;;;;4903142;29;20480;-93
2023/02/09 03:35:14;;;;;;;11.70;9.10;;;3.00;95.50;;;;;;4902592;29;20477;-93
2023/02/09 03:37:39;;;;;;;13.75;8.85;;;4.40;95.90;;;;;;4903053;29;20029;-94
2023/02/09 03:40:05;;;;;;;13.98;8.93;;;3.10;95.60;;;;;;4902668;29;20024;-94
2023/02/09 03:42:31;;;;;;;17.30;9.60;;;3.00;95.50;;;;;;4903125;29;20056;-93
2023/02/09 03:44:57;;;;;;;11.90;8.60;;;4.20;95.90;;;;;;4912455;29;20044;-94
2023/02/09 03:47:22;;;;;;;16.70;9.05;;;3.50;95.80;;;;;;4904840;29;20092;-94
2023/02/09 03:49:48;;;;;;;15.93;8.23;;;3.30;95.70;;;;;;4902871;29;20028;-93
2023/02/09 03:52:15;;;;;;;16.00;8.98;;;2.90;95.60;;;;;;4902547;29;20067;-93
2023/02/09 03:54:43;;;;;;;14.35;8.50;;;4.10;95.80;;;;;;4902473;29;20048;-95
2023/02/09 03:57:09;;;;;;;21.38;9.90;;;3.10;95.60;;;;;;4902428;29;20060;-95
2023/02/09 03:59:36;;;;;;;13.55;8.57;;;4.20;95.90;;;;;;4902506;29;20032;-93
2023/02/09 04:02:04;;;;;;;15.23;8.93;;;2.90;95.60;;;;;;4912116;29;20108;-92
2023/02/09 04:04:30;;;;;;;17.27;8.80;;;3.70;95.80;;;;;;4909318;29;20033;-93
2023/02/09 04:06:56;;;;;;;12.65;9.00;;;3.50;95.80;;;;;;4904490;29;20036;-94
2023/02/09 04:09:23;;;;;;;14.48;9.65;;;2.90;95.70;;;;;;4911108;29;20031;-93
2023/02/09 04:11:48;;;;;;;14.35;8.57;;;2.90;95.70;;;;;;4902600;29;20028;-93
2023/02/09 04:14:15;;;;;;;13.00;8.65;;;3.50;95.90;;;;;;4902927;29;20040;-92
2023/02/09 04:16:40;;;;;;;13.70;8.93;;;2.90;95.70;;;;;;4914619;29;20029;-93
2023/02/09 04:19:08;;;;;;;14.32;8.27;;;3.20;95.80;;;;;;4904488;29;20487;-91
2023/02/09 04:21:34;;;;;;;15.13;9.52;;;3.40;95.90;;;;;;4902363;29;20028;-90
2023/02/09 04:24:00;;;;;;;15.43;8.98;;;3.50;96.00;;;;;;4903337;29;20389;-94
2023/02/09 04:26:25;;;;;;;11.15;8.55;;;2.90;96.20;;;;;;4901957;29;20024;-93
2023/02/09 04:28:51;;;;;;;12.93;8.60;;;3.90;95.90;;;;;;4901939;29;20024;-93
2023/02/09 04:31:28;;;;;;;15.60;9.07;;;3.80;95.80;;;;;;4901439;29;20021;-93
2023/02/09 04:33:53;;;;;;;14.13;8.52;;;2.90;95.40;;;;;;4902479;29;20053;-93
2023/02/09 04:36:22;;;;;;;14.85;9.10;;;3.40;95.50;;;;;;4901343;29;20413;-94
2023/02/09 04:38:48;;;;;;;11.05;8.43;;;2.90;95.30;;;;;;4901722;29;20477;-93
2023/02/09 04:41:15;;;;;;;10.45;7.47;;;3.30;95.30;;;;;;4901815;29;20516;-94
2023/02/09 04:43:40;;;;;;;12.25;8.10;;;3.50;95.30;;;;;;4902055;29;20025;-94
2023/02/09 04:46:18;;;;;;;13.48;8.00;;;3.20;95.10;;;;;;4900920;29;20458;-93
2023/02/09 04:48:44;;;;;;;13.77;7.97;;;3.10;95.10;;;;;;4901681;29;20033;-92
2023/02/09 04:51:09;;;;;;;12.32;7.47;;;3.30;95.20;;;;;;4901305;29;20124;-93
2023/02/09 04:54:01;;;;;;;11.07;8.05;;;3.30;95.20;;;;;;4902873;29;20481;-93
2023/02/09 04:56:40;;;;;;;14.75;8.02;;;2.80;95.00;;;;;;4861518;29;20045;-92
2023/02/09 05:01:51;;;;;;;15.13;8.48;;;3.40;95.20;;;;;;4865989;29;20094;-94
2023/02/09 05:04:19;;;;;;;13.93;8.57;;;2.80;95.20;;;;;;4869162;29;20057;-94
2023/02/09 05:06:57;;;;;;;13.02;8.82;;;3.10;95.30;;;;;;4865513;29;20066;-93
2023/02/09 05:09:23;;;;;;;13.45;8.48;;;3.00;95.30;;;;;;4870310;29;20041;-92
2023/02/09 05:11:48;;;;;;;12.45;8.23;;;2.80;95.20;;;;;;4875294;29;20112;-92
2023/02/09 05:14:23;;;;;;;12.18;7.88;;;3.30;95.20;;;;;;4865122;29;20049;-93
2023/02/09 05:16:48;;;;;;;12.75;7.55;;;2.80;95.20;;;;;;4863835;29;20108;-92
2023/02/09 05:19:32;;;;;;;10.57;7.60;;;2.80;95.20;;;;;;4863731;29;20076;-94
2023/02/09 05:21:57;;;;;;;11.95;7.28;;;2.80;95.30;;;;;;4863972;29;20030;-94
2023/02/09 05:24:23;;;;;;;12.07;7.97;;;3.30;95.30;;;;;;4863713;29;20501;-94
2023/02/09 05:26:49;;;;;;;15.55;7.35;;;3.40;95.40;;;;;;4863900;29;20121;-94
2023/02/09 05:29:20;;;;;;;12.20;7.40;;;3.70;95.40;;;;;;4864083;29;20033;-94
2023/02/09 05:31:46;;;;;;;13.02;8.30;;;3.90;95.50;;;;;;4864641;29;20049;-93
2023/02/09 05:34:11;;;;;;;12.93;8.07;;;3.20;95.40;;;;;;4864112;29;20045;-94
2023/02/09 05:36:37;;;;;;;15.05;7.68;;;3.70;95.50;;;;;;4864934;29;20057;-94
2023/02/09 05:39:03;;;;;;;9.43;7.68;;;3.20;95.40;;;;;;4864536;29;20033;-93
2023/02/09 05:44:12;;;;;;;11.00;7.75;;;3.30;95.40;;;;;;4863658;29;20398;-93
2023/02/09 05:46:38;;;;;;;9.40;7.38;;;3.10;95.50;;;;;;4863026;29;20026;-93
2023/02/09 05:49:04;;;;;;;13.38;7.57;;;3.10;95.40;;;;;;4863834;29;20421;-94
2023/02/09 05:51:29;;;;;;;16.77;7.82;;;2.70;95.30;;;;;;4863768;29;20085;-94
2023/02/09 05:53:55;;;;;;;21.38;8.20;;;2.70;95.30;;;;;;4863958;29;20040;-94
2023/02/09 05:56:21;;;;;;;13.15;8.20;;;3.10;95.40;;;;;;4899379;29;20056;-93
2023/02/09 05:58:47;;;;;;;11.85;8.25;;;2.70;95.40;;;;;;4900854;29;20036;-93
2023/02/09 06:01:12;;;;;;;11.77;7.88;;;2.80;95.40;;;;;;4901329;29;20025;-94
2023/02/09 06:03:38;;;;;;;12.95;8.05;;;2.70;95.20;;;;;;4913842;29;20025;-94
2023/02/09 06:06:04;;;;;;;10.65;7.60;;;3.20;95.40;;;;;;4905867;29;20217;-93
2023/02/09 06:08:30;;;;;;;15.15;7.93;;;2.80;95.20;;;;;;4901243;29;20040;-94
2023/02/09 06:10:55;;;;;;;10.98;7.63;;;3.00;95.20;;;;;;4900798;29;20036;-93
2023/02/09 06:13:21;;;;;;;8.73;7.10;;;3.00;95.30;;;;;;4900906;29;20033;-94
2023/02/09 06:15:47;;;;;;;10.93;7.95;;;2.70;95.20;;;;;;4883077;29;20465;-94
2023/02/09 06:18:12;;;;;;;13.38;8.25;;;2.60;95.20;;;;;;4882264;29;20112;-93
2023/02/09 06:21:01;;;;;;;18.02;8.10;;;3.30;95.40;;;;;;4881513;29;20029;-92
2023/02/09 06:23:29;;;;;;;10.13;8.20;;;3.10;95.30;;;;;;4882091;29;20029;-93
2023/02/09 06:25:56;;;;;;;16.13;8.77;;;2.50;95.20;;;;;;4882131;29;20029;-93
2023/02/09 06:31:40;;;;;;;19.83;7.85;;;2.70;95.40;;;;;;4908730;23;20068;-91
2023/02/09 06:36:43;;;;;;;10.88;8.18;;;2.70;95.50;;;;;;4928387;23;20056;-93
2023/02/09 06:39:09;;;;;;;14.18;8.23;;;2.70;95.50;;;;;;4899676;29;20037;-91
2023/02/09 06:41:35;;;;;;;12.27;8.32;;;2.70;95.50;;;;;;4890921;29;20025;-93
2023/02/09 06:44:04;;;;;;;12.50;8.25;;;3.10;95.90;;;;;;4881235;29;20449;-95
2023/02/09 06:46:30;;;;;;;18.85;7.80;;;3.10;95.70;;;;;;4886172;29;20504;-93
2023/02/09 06:48:55;;;;;;;14.65;8.73;;;2.90;95.70;;;;;;4889299;29;20024;-95
2023/02/09 06:51:21;;;;;;;14.02;8.25;;;3.20;95.70;;;;;;4940507;23;20060;-91
2023/02/09 06:53:47;;;;;;;12.43;7.88;;;3.10;95.80;;;;;;4899860;29;20100;-91
2023/02/09 06:56:13;;;;;;;14.38;8.38;;;3.40;95.90;;;;;;4914540;29;20048;-92
2023/02/09 06:58:39;;;;;;;13.05;8.25;;;2.70;95.70;;;;;;4914631;29;20033;-93
2023/02/09 07:01:16;;;;;;;11.38;8.23;;;2.60;95.70;;;;;;4907279;29;20059;-92
2023/02/09 07:03:42;;;;;;;18.05;8.23;;;2.70;96.00;;;;;;4906155;29;20111;-93
2023/02/09 07:06:14;;;;;;;18.92;9.38;;;2.90;95.90;;;;;;4922745;29;20017;-92
2023/02/09 07:08:49;;;;;;;12.70;8.98;;;2.70;95.70;;;;;;4914933;23;20085;-92
2023/02/09 07:11:19;;;;;;;11.60;8.57;;;2.70;95.80;;;;;;4908011;29;20504;-94
2023/02/09 07:13:45;;;;;;;11.32;8.60;;;3.20;95.90;;;;;;4905178;29;20040;-93
2023/02/09 07:16:28;;;;;;;12.15;8.77;;;3.40;96.00;;;;;;4907538;29;20029;-94
2023/02/09 07:18:54;;;;;;;12.27;8.20;;;2.50;95.90;;;;;;4912516;29;20037;-95
2023/02/09 07:26:23;;;;;;;10.63;7.78;;;2.60;96.10;;;;;;4885602;29;20060;-93
2023/02/09 07:28:49;;;;;;;14.05;8.95;;;2.50;96.10;;;;;;4884881;29;20044;-93
2023/02/09 07:31:15;;;;;;;12.93;8.45;;;2.30;96.00;;;;;;4870902;29;20029;-94
2023/02/09 07:33:41;;;;;;;14.32;8.95;;;3.20;96.30;;;;;;4867289;29;20549;-95
2023/02/09 07:36:19;;;;;;;18.30;8.85;;;3.10;96.20;;;;;;4867696;29;20450;-93
2023/02/09 07:38:44;;;;;;;16.35;8.10;;;2.90;96.20;;;;;;4867243;29;20121;-94
2023/02/09 07:41:16;;;;;;;15.15;9.70;;;2.90;96.20;;;;;;4867601;29;20053;-93
2023/02/09 07:43:58;;;;;;;14.73;8.45;;;2.10;96.00;;;;;;4872508;29;20021;-94
2023/02/09 07:46:27;;;;;;;17.02;8.85;;;2.80;96.20;;;;;;4886878;29;20033;-93
2023/02/09 07:48:56;;;;;;;13.55;8.57;;;3.00;96.20;;;;;;4887827;29;20024;-93
2023/02/09 07:51:25;;;;;;;15.65;8.52;;;2.60;96.20;;;;;;4885427;29;20033;-86
2023/02/09 07:53:54;;;;;;;13.10;9.25;;;2.50;96.20;;;;;;4886113;29;20057;-94
2023/02/09 07:56:20;;;;;;;11.30;8.32;;;3.10;96.30;;;;;;4890410;29;20081;-94
2023/02/09 07:58:46;;;;;;;15.07;8.77;;;2.70;96.20;;;;;;4889267;29;20492;-93
2023/02/09 08:01:12;;;;;;;15.90;9.15;;;2.60;96.30;;;;;;4875392;29;20033;-94
2023/02/09 08:03:48;;;;;;;16.42;9.13;;;2.60;96.30;;;;;;4891376;29;20027;-93
2023/02/09 08:06:34;;;;;;;13.30;8.93;;;2.60;96.10;;;;;;4890802;29;20029;-93
2023/02/09 08:09:01;;;;;;;14.73;8.15;;;2.60;96.00;;;;;;4892636;29;20041;-93
2023/02/09 08:11:42;;;;;;;15.73;8.68;;;3.70;96.50;;;;;;4888722;29;20036;-93
2023/02/09 08:14:17;;;;;;;13.27;8.25;;;3.10;96.40;;;;;;4894779;29;20025;-95
2023/02/09 08:16:48;;;;;;;11.88;8.85;;;2.30;96.20;;;;;;4893872;29;20055;-95
2023/02/09 08:19:18;;;;;;;16.63;9.45;;;2.50;96.20;;;;;;4889238;29;20036;-93
2023/02/09 08:21:45;;;;;;;18.17;10.40;;;2.70;96.30;;;;;;4894219;29;20049;-94
2023/02/09 08:24:15;;;;;;;15.73;9.60;;;2.80;96.30;;;;;;4896028;29;20032;-95
2023/02/09 08:26:48;;;;;;;14.23;8.87;;;2.40;96.20;;;;;;4895315;29;20165;-94
2023/02/09 08:29:14;;;;;;;20.75;8.73;;;3.50;96.60;;;;;;4889193;29;20033;-92
2023/02/09 08:31:39;;;;;;;21.52;9.13;;;3.20;96.50;;;;;;4886537;29;20017;-94
2023/02/09 08:34:12;;;;;;;21.58;9.82;;;2.70;96.50;;;;;;4884816;29;20033;-92
2023/02/09 08:36:40;;;;;;;15.38;8.52;;;3.60;96.80;;;;;;4882721;29;20108;-92
2023/02/09 08:39:14;;;;;;;15.13;8.98;;;2.80;96.50;;;;;;4882693;29;20033;-92
2023/02/09 08:41:40;;;;;;;14.95;9.65;;;2.80;96.60;;;;;;4886774;29;20108;-92
2023/02/09 08:44:08;;;;;;;14.13;9.27;;;2.90;96.60;;;;;;4902957;29;20033;-93
2023/02/09 08:49:58;;;;;;;16.27;9.57;;;3.00;96.60;;;;;;4856880;29;20055;-93
2023/02/09 08:52:35;;;;;;;17.90;9.63;;;3.40;96.80;;;;;;4897828;29;20035;-94
2023/02/09 08:55:01;;;;;;;18.92;11.02;;;2.90;96.60;;;;;;4903151;29;20469;-87
2023/02/09 08:57:27;;;;;;;18.42;8.63;;;3.00;96.80;;;;;;4886117;29;20052;-94
2023/02/09 08:59:53;;;;;;;16.65;10.45;;;3.40;96.90;;;;;;4904629;29;20029;-92
2023/02/09 09:02:18;;;;;;;16.02;9.07;;;3.00;96.80;;;;;;4900944;29;20381;-90
2023/02/09 09:04:44;;;;;;;12.05;9.00;;;3.50;96.80;;;;;;4902763;29;20461;-86
2023/02/09 09:07:16;;;;;;;14.27;9.50;;;3.10;96.80;;;;;;4900856;29;20029;-95
2023/02/09 09:09:41;;;;;;;23.20;10.35;;;3.10;97.00;;;;;;4902011;29;20119;-93
2023/02/09 09:12:07;;;;;;;24.00;10.80;;;3.10;97.00;;;;;;4902507;29;20048;-94
2023/02/09 09:14:33;;;;;;;19.13;10.65;;;3.10;97.10;;;;;;4905803;29;20088;-92
2023/02/09 09:17:00;;;;;;;17.92;9.40;;;3.60;97.20;;;;;;4881921;29;20041;-90
2023/02/09 09:19:27;;;;;;;20.30;10.27;;;3.10;96.90;;;;;;4880584;29;20553;-91
2023/02/09 09:21:53;;;;;;;15.45;10.10;;;3.90;97.30;;;;;;4896427;23;20112;-90
2023/02/09 09:24:27;;;;;;;14.95;9.85;;;3.30;97.00;;;;;;4898918;29;20080;-91
2023/02/09 09:27:01;;;;;;;18.92;9.85;;;3.20;97.20;;;;;;4896212;29;20061;-91
2023/02/09 09:29:39;;;;;;;14.45;9.57;;;3.00;97.20;;;;;;4893755;29;20039;-91
2023/02/09 09:32:05;;;;;;;15.25;9.82;;;3.20;97.40;;;;;;4881791;29;20025;-92
2023/02/09 09:34:31;;;;;;;14.63;9.82;;;3.80;97.60;;;;;;4883933;29;20056;-92
2023/02/09 09:40:49;;;;;;;17.80;10.38;;;3.30;97.90;;;;;;4901702;29;20051;-93
2023/02/09 09:43:22;;;;;;;16.90;9.68;;;3.30;97.90;;;;;;4897059;29;20104;-92
2023/02/09 09:45:48;;;;;;;16.30;9.60;;;4.30;98.20;;;;;;4896323;29;20084;-92
2023/02/09 09:48:25;;;;;;;18.92;10.30;;;3.30;97.90;;;;;;4896012;29;20417;-93
2023/02/09 09:50:55;;;;;;;16.48;9.88;;;3.40;97.80;;;;;;4899985;29;20119;-91
2023/02/09 09:53:30;;;;;;;16.55;9.85;;;4.00;98.10;;;;;;4900074;29;20024;-93
2023/02/09 09:56:03;;;;;;;17.08;9.80;;;3.40;98.00;;;;;;4898698;29;20037;-92
2023/02/09 09:58:46;;;;;;;15.23;10.18;;;3.50;98.10;;;;;;4898621;29;20425;-88
2023/02/09 10:01:27;;;;;;;16.35;9.98;;;4.40;98.50;;;;;;4892297;29;20028;-93
2023/02/09 10:04:08;;;;;;;16.20;9.90;;;3.90;98.40;;;;;;4897569;29;20020;-92
2023/02/09 10:06:33;;;;;;;17.45;10.45;;;3.90;98.50;;;;;;4901286;29;20071;-92
2023/02/09 10:09:01;;;;;;;19.35;10.55;;;4.10;98.50;;;;;;4901346;29;20044;-93
2023/02/09 10:11:42;;;;;;;19.40;11.80;;;3.60;98.70;;;;;;4905215;23;20060;-91
2023/02/09 10:14:08;;;;;;;18.48;10.63;;;4.90;99.00;;;;;;4900525;29;20041;-92
2023/02/09 10:16:36;;;;;;;21.77;10.88;;;3.60;98.70;;;;;;4899647;29;20071;-93
2023/02/09 10:19:20;;;;;;;17.95;11.93;;;3.70;98.80;;;;;;4899944;29;20036;-93
2023/02/09 10:21:47;;;;;;;18.60;11.93;;;4.20;98.90;;;;;;4900064;29;20112;-93
2023/02/09 10:24:25;;;;;;;21.17;11.43;;;4.30;98.90;;;;;;4899108;29;20055;-91
2023/02/09 10:27:08;;;;;;;17.80;10.73;;;3.90;99.00;;;;;;4900775;29;20031;-93
2023/02/09 10:29:40;;;;;;;15.98;11.07;;;4.30;99.00;;;;;;4907484;23;20183;-92
2023/02/09 10:32:34;;;;;;;16.90;10.82;;;3.90;99.20;;;;;;4888486;29;20029;-93
2023/02/09 10:35:03;;;;;;;18.30;11.63;;;4.40;99.70;;;;;;4888096;29;20039;-92
2023/02/09 10:37:38;;;;;;;19.42;11.55;;;3.80;99.50;;;;;;4905254;23;20124;-88
2023/02/09 10:40:40;;;;;;;19.90;11.63;;;4.00;99.70;;;;;;4898752;29;20036;-92
2023/02/09 10:43:26;;;;;;;16.75;11.98;;;3.90;99.80;;;;;;4868301;29;20062;-88
2023/02/09 10:46:14;;;;;;;20.02;12.65;;;3.90;99.90;;;;;;4892846;29;20033;-91
2023/02/09 10:48:44;;;;;;;14.35;10.95;;;3.80;99.90;;;;;;4897821;29;20052;-88
2023/02/09 10:51:14;;;;;;;20.05;11.93;;;5.10;99.90;;;;;;4891182;29;20064;-86
2023/02/09 10:54:20;;;;;;;25.92;12.85;;;3.90;99.90;;;;;;4897317;29;20052;-89
2023/02/09 10:56:47;;;;;;;25.27;13.10;;;3.80;99.90;;;;;;4897970;29;20036;-88
2023/02/09 10:59:24;;;;;;;22.00;12.73;;;3.90;99.90;;;;;;4899161;29;20032;-87
2023/02/09 11:02:00;;;;;;;25.92;12.70;;;4.10;99.90;;;;;;4911671;23;20049;-88
2023/02/09 11:04:51;;;;;;;24.13;13.48;;;4.00;99.90;;;;;;4861726;29;20033;-88
2023/02/09 11:10:11;;;;;;;18.35;13.20;;;4.00;99.90;;;;;;4896881;29;20575;-88
2023/02/09 11:12:46;;;;;;;19.30;13.05;;;4.10;99.90;;;;;;4898242;29;20107;-89
2023/02/09 11:15:14;;;;;;;19.45;13.57;;;4.60;99.90;;;;;;4895120;29;20028;-89
2023/02/09 11:18:04;;;;;;;24.00;13.25;;;4.70;99.90;;;;;;4898087;29;20029;-89
2023/02/09 11:20:50;;;;;;;21.80;12.70;;;4.20;99.90;;;;;;4857541;29;20496;-90
2023/02/09 11:23:48;;;;;;;20.55;13.50;;;4.20;99.90;;;;;;4896374;29;20064;-89
2023/02/09 11:26:38;;;;;;;21.35;13.93;;;4.30;99.90;;;;;;4897902;29;20366;-91
2023/02/09 11:29:30;;;;;;;20.23;13.48;;;4.30;99.90;;;;;;4880693;29;20033;-90
2023/02/09 11:32:12;;;;;;;23.67;13.25;;;4.30;99.90;;;;;;4880683;29;20056;-91
2023/02/09 11:35:11;;;;;;;28.67;13.50;;;5.60;99.90;;;;;;4880419;29;20081;-93
2023/02/09 11:37:48;;;;;;;19.02;14.43;;;4.20;99.90;;;;;;4879849;29;20035;-91
2023/02/09 11:40:28;;;;;;;25.65;14.27;;;4.30;99.90;;;;;;4880566;29;20028;-92
2023/02/09 11:43:17;;;;;;;23.23;14.57;;;4.90;99.90;;;;;;4880649;29;20104;-89
2023/02/09 11:45:51;;;;;;;22.55;14.10;;;4.40;99.90;;;;;;4883616;29;20032;-93
2023/02/09 11:48:22;;;;;;;21.08;13.73;;;4.90;99.90;;;;;;4896758;23;20052;-90
2023/02/09 11:51:15;;;;;;;21.50;14.48;;;4.50;99.90;;;;;;4902777;29;20027;-94
2023/02/09 11:54:12;;;;;;;26.52;14.48;;;4.60;99.90;;;;;;4903363;29;20028;-91
2023/02/09 11:56:48;;;;;;;24.55;14.68;;;4.70;99.90;;;;;;4900292;29;20115;-85
2023/02/09 11:59:38;;;;;;;19.02;14.32;;;4.70;99.90;;;;;;4900113;29;20036;-92
2023/02/09 12:02:18;;;;;;;25.40;14.33;;;5.10;99.90;;;;;;4892714;29;20462;-93
2023/02/09 12:05:00;;;;;;;;;;;4.70;99.90;;;;;;4899622;29;20536;-91
2023/02/09 12:08:02;;;;;;;24.33;15.13;;;4.70;99.90;;;;;;4884884;29;20391;-92
2023/02/09 12:10:47;;;;;;;27.75;15.18;;;4.70;99.90;;;;;;4890717;29;20081;-91
2023/02/09 12:13:22;;;;;;;25.30;13.95;;;5.10;99.90;;;;;;4893597;29;20031;-90
2023/02/09 12:16:06;;;;;;;25.58;14.30;;;4.90;99.90;;;;;;4902108;29;20042;-89
2023/02/09 12:18:39;;;;;;;28.95;15.50;;;4.80;99.90;;;;;;4906252;29;20392;-89
2023/02/09 12:21:12;;;;;;;42.90;17.65;;;5.20;99.90;;;;;;4902222;29;20103;-91
2023/02/09 12:23:43;;;;;;;22.35;15.63;;;6.00;99.90;;;;;;4901879;29;20032;-89
2023/02/09 12:26:14;;;;;;;21.42;15.35;;;5.00;99.90;;;;;;4901382;29;20028;-89
2023/02/09 12:29:15;;;;;;;31.27;16.17;;;5.60;99.90;;;;;;4901026;29;20064;-89
2023/02/09 12:32:03;;;;;;;25.60;16.08;;;5.20;99.90;;;;;;4902315;29;20055;-91
2023/02/09 12:34:48;;;;;;;20.48;14.27;;;5.00;99.90;;;;;;4898106;29;20065;-91
2023/02/09 12:37:27;;;;;;;23.60;15.15;;;5.00;99.90;;;;;;4896739;29;20037;-90
2023/02/09 12:40:11;;;;;;;31.38;17.30;;;5.00;99.90;;;;;;4901138;29;20461;-89
2023/02/09 12:43:02;;;;;;;24.88;15.80;;;5.10;99.90;;;;;;4900314;29;20091;-90
2023/02/09 12:45:35;;;;;;;23.90;16.55;;;5.00;99.90;;;;;;4900387;29;20540;-89
2023/02/09 12:48:13;;;;;;;26.38;17.20;;;5.20;99.90;;;;;;4900221;29;20084;-90
2023/02/09 12:50:42;;;;;;;24.63;16.23;;;5.10;99.90;;;;;;4900562;29;20080;-90
2023/02/09 12:53:25;;;;;;;28.40;16.70;;;5.20;99.90;;;;;;4900416;29;20380;-90
2023/02/09 12:55:58;;;;;;;29.90;17.40;;;5.20;99.90;;;;;;4899650;29;20021;-88
2023/02/09 12:59:05;;;;;;;28.08;17.17;;;5.20;99.90;;;;;;4899861;29;20076;-90
2023/02/09 13:02:05;;;;;;;29.08;17.00;;;5.20;99.90;;;;;;4897088;29;20053;-90
2023/02/09 13:04:52;;;;;;;32.45;17.33;;;5.20;99.90;;;;;;4896173;29;20036;-90
2023/02/09 13:07:49;;;;;;;27.80;17.92;;;5.30;99.90;;;;;;4897984;29;20051;-89
2023/02/09 13:10:26;;;;;;;31.83;18.23;;;5.30;99.90;;;;;;4897769;29;20374;-91
2023/02/09 13:13:11;;;;;;;32.05;17.55;;;5.30;99.90;;;;;;4897250;29;20168;-88
2023/02/09 13:15:53;;;;;;;26.60;16.73;;;5.30;99.90;;;;;;4900572;29;20044;-91
2023/02/09 13:19:13;;;;;;;30.60;18.30;;;5.40;99.90;;;;;;4901953;29;20025;-94
2023/02/09 13:22:09;;;;;;;33.65;16.75;;;5.30;99.90;;;;;;4840615;29;20030;-90
2023/02/09 13:24:43;;;;;;;28.50;18.65;;;5.30;99.90;;;;;;4841974;29;20052;-90
2023/02/09 13:27:20;;;;;;;41.78;19.45;;;5.30;99.90;;;;;;4887520;29;20128;-93
2023/02/09 13:29:52;;;;;;;33.13;18.38;;;5.30;99.90;;;;;;4900120;29;20044;-90
2023/02/09 13:32:37;;;;;;;30.75;18.00;;;5.30;99.90;;;;;;4892668;29;20029;-93
2023/02/09 13:35:41;;;;;;;31.75;18.90;;;5.60;99.90;;;;;;4901705;29;20029;-92
2023/02/09 13:38:20;;;;;;;31.58;18.20;;;5.20;99.90;;;;;;4902554;29;20036;-94
2023/02/09 13:40:54;;;;;;;27.45;17.77;;;5.60;99.90;;;;;;4921498;23;20386;-91
2023/02/09 13:43:44;;;;;;;31.17;19.25;;;5.30;99.90;;;;;;4897344;29;20060;-90